Time;durP1;ratioP1;P1;durP2;ratioP2;P2;SDS_P1;SDS_P2;PMS_P1;PMS_P2;Temp;Humidity;BMP_temperature;BMP_pressure;BME280_temperature;BME280_humidity;BME280_pressure;Samples;Min_cycle;Max_cycle;Signal;HPM_P1;HPM_P2
2022/07/21 00:00:35;;;;;;;17.98;10.15;;;;;;;21.53;100.00;101359.78;5036022;28;20124;-72
2022/07/21 00:03:02;;;;;;;20.45;9.45;;;;;;;21.37;100.00;101360.72;5059753;28;20051;-74
2022/07/21 00:05:29;;;;;;;17.63;8.93;;;;;;;21.38;100.00;101358.69;5046624;28;20539;-71
2022/07/21 00:07:56;;;;;;;19.17;9.73;;;;;;;21.31;100.00;101361.75;5048679;28;20055;-72
2022/07/21 00:10:24;;;;;;;18.95;9.40;;;;;;;21.36;100.00;101367.59;5059903;28;20041;-71
2022/07/21 00:12:52;;;;;;;16.08;8.52;;;;;;;21.34;100.00;101369.28;5058119;28;20136;-71
2022/07/21 00:15:19;;;;;;;16.05;8.07;;;;;;;21.27;100.00;101378.78;5052485;28;20769;-75
2022/07/21 00:17:46;;;;;;;16.17;7.88;;;;;;;21.24;100.00;101381.69;5048816;28;20051;-71
2022/07/21 00:20:15;;;;;;;16.77;8.52;;;;;;;21.22;100.00;101390.59;5045833;28;20053;-72
2022/07/21 00:22:42;;;;;;;17.58;9.88;;;;;;;21.17;100.00;101398.84;5046031;28;20720;-72
2022/07/21 00:25:10;;;;;;;17.10;9.63;;;;;;;21.04;100.00;101392.44;5049923;28;20057;-71
2022/07/21 00:27:37;;;;;;;11.35;5.32;;;;;;;20.90;100.00;101387.25;5053250;28;20049;-71
2022/07/21 00:30:06;;;;;;;16.30;9.57;;;;;;;20.95;100.00;101376.25;5051658;28;20470;-72
2022/07/21 00:32:33;;;;;;;17.05;9.43;;;;;;;20.81;100.00;101373.88;5039680;28;20510;-75
2022/07/21 00:35:03;;;;;;;21.15;11.60;;;;;;;20.98;100.00;101366.09;5050156;28;20053;-73
2022/07/21 00:37:30;;;;;;;19.67;11.63;;;;;;;20.99;100.00;101360.03;5048792;28;20710;-71
2022/07/21 00:39:57;;;;;;;22.65;10.60;;;;;;;20.72;100.00;101361.75;5051974;28;20770;-72
2022/07/21 00:42:26;;;;;;;21.20;11.93;;;;;;;20.69;100.00;101359.84;5046816;28;20417;-70
2022/07/21 00:44:54;;;;;;;17.48;10.05;;;;;;;20.62;100.00;101357.25;5062000;28;20094;-72
2022/07/21 00:47:26;;;;;;;20.65;11.57;;;;;;;20.50;100.00;101341.16;5052385;28;20059;-70
2022/07/21 00:49:54;;;;;;;22.38;12.55;;;;;;;20.52;100.00;101338.69;5058541;28;20478;-72
2022/07/21 00:52:21;;;;;;;18.45;11.25;;;;;;;20.51;100.00;101345.56;5050322;28;20075;-69
2022/07/21 00:54:48;;;;;;;23.00;13.10;;;;;;;20.53;100.00;101357.13;5047057;28;20053;-71
2022/07/21 00:57:15;;;;;;;21.48;10.98;;;;;;;20.42;100.00;101358.25;5047425;28;20504;-71
2022/07/21 00:59:43;;;;;;;25.08;14.07;;;;;;;20.48;100.00;101346.47;5046572;28;20451;-70
2022/07/21 01:02:11;;;;;;;25.98;14.68;;;;;;;20.61;100.00;101344.44;5058943;28;20124;-72
2022/07/21 01:04:38;;;;;;;23.75;14.73;;;;;;;20.61;100.00;101350.81;5054169;28;20049;-72
2022/07/21 01:07:06;;;;;;;23.63;14.50;;;;;;;20.62;100.00;101357.25;5046807;28;20452;-71
2022/07/21 01:09:34;;;;;;;22.52;12.10;;;;;;;20.53;100.00;101354.31;5053026;28;20090;-70
2022/07/21 01:12:01;;;;;;;26.10;12.70;;;;;;;20.48;100.00;101366.13;5057347;28;20050;-72
2022/07/21 01:14:28;;;;;;;27.35;12.50;;;;;;;20.41;100.00;101367.13;5059179;28;20049;-71
2022/07/21 01:16:55;;;;;;;23.60;13.05;;;;;;;20.39;100.00;101367.56;5054279;28;20052;-71
2022/07/21 01:19:22;;;;;;;25.48;15.38;;;;;;;20.48;100.00;101378.16;5056493;28;20163;-74
2022/07/21 01:21:50;;;;;;;24.52;13.23;;;;;;;20.42;100.00;101380.75;5053661;28;20049;-70
2022/07/21 01:24:16;;;;;;;30.77;15.32;;;;;;;20.47;100.00;101372.97;5060447;28;20059;-72
2022/07/21 01:26:45;;;;;;;28.63;15.27;;;;;;;20.43;100.00;101375.91;5056341;28;20068;-71
2022/07/21 01:29:12;;;;;;;23.60;14.38;;;;;;;20.46;100.00;101371.41;5066102;28;20758;-71
2022/07/21 01:31:41;;;;;;;24.08;15.77;;;;;;;20.50;100.00;101372.88;5045835;28;20508;-71
2022/07/21 01:34:09;;;;;;;27.23;16.80;;;;;;;20.55;100.00;101369.50;5045276;28;20056;-71
2022/07/21 01:36:36;;;;;;;27.30;17.25;;;;;;;20.59;100.00;101369.41;5060482;28;20118;-72
2022/07/21 01:41:50;;;;;;;26.02;15.52;;;;;;;20.59;100.00;101377.81;5060790;28;20044;-72
2022/07/21 01:44:18;;;;;;;31.52;16.95;;;;;;;20.61;100.00;101378.94;5053539;28;20056;-71
2022/07/21 01:46:49;;;;;;;29.35;17.33;;;;;;;20.58;100.00;101385.47;5049396;28;20135;-72
2022/07/21 01:49:17;;;;;;;33.00;17.95;;;;;;;20.61;100.00;101390.19;5047785;28;20189;-71
2022/07/21 01:51:44;;;;;;;28.73;14.23;;;;;;;20.53;100.00;101388.06;5058173;28;20052;-71
2022/07/21 01:54:11;;;;;;;27.17;16.02;;;;;;;20.53;100.00;101394.47;5062802;28;20820;-71
2022/07/21 01:56:39;;;;;;;34.13;18.63;;;;;;;20.60;100.00;101396.25;5060368;28;20056;-72
2022/07/21 01:59:06;;;;;;;30.00;14.82;;;;;;;20.54;100.00;101400.88;5050459;28;20339;-70
2022/07/21 02:01:33;;;;;;;27.02;15.25;;;;;;;20.49;100.00;101399.44;5063315;28;20048;-73
2022/07/21 02:04:04;;;;;;;23.98;15.13;;;;;;;20.45;100.00;101389.53;5058530;28;20060;-71
2022/07/21 02:06:30;;;;;;;24.10;13.52;;;;;;;20.38;100.00;101389.75;5054071;28;20052;-70
2022/07/21 02:08:57;;;;;;;13.70;6.40;;;;;;;20.26;100.00;101389.25;5059351;28;20054;-73
2022/07/21 02:11:24;;;;;;;21.42;11.63;;;;;;;20.28;100.00;101392.41;5061222;28;20503;-71
2022/07/21 02:13:50;;;;;;;21.30;10.80;;;;;;;20.21;100.00;101389.03;5064926;28;20044;-71
2022/07/21 02:16:17;;;;;;;18.38;9.13;;;;;;;20.10;100.00;101383.72;5066095;28;20057;-70
2022/07/21 02:18:44;;;;;;;16.50;7.65;;;;;;;19.99;100.00;101380.44;5059086;28;20618;-70
2022/07/21 02:21:10;;;;;;;19.98;10.57;;;;;;;20.01;100.00;101371.53;5059825;28;20146;-69
2022/07/21 02:23:37;;;;;;;17.25;8.30;;;;;;;19.91;100.00;101372.66;5055078;28;20049;-72
2022/07/21 02:26:04;;;;;;;17.13;8.40;;;;;;;19.93;100.00;101385.03;5057277;28;20136;-70
2022/07/21 02:28:30;;;;;;;19.15;10.15;;;;;;;19.91;100.00;101387.47;5061828;28;20517;-69
2022/07/21 02:30:57;;;;;;;20.13;9.82;;;;;;;19.85;100.00;101391.28;5057842;28;20131;-70
2022/07/21 02:33:24;;;;;;;21.08;9.05;;;;;;;19.75;100.00;101390.34;5055348;28;20053;-71
2022/07/21 02:35:50;;;;;;;19.52;9.40;;;;;;;19.66;100.00;101389.41;5054071;28;20108;-69
2022/07/21 02:38:17;;;;;;;20.17;10.38;;;;;;;19.66;100.00;101389.41;5056522;28;20053;-69
2022/07/21 02:40:44;;;;;;;19.30;7.88;;;;;;;19.58;100.00;101383.19;5064776;28;20072;-70
2022/07/21 02:43:10;;;;;;;20.60;10.80;;;;;;;19.59;100.00;101389.59;5053734;28;20082;-71
2022/07/21 02:45:37;;;;;;;21.33;12.32;;;;;;;19.59;100.00;101392.41;5058864;28;20052;-70
2022/07/21 02:48:07;;;;;;;24.48;11.75;;;;;;;19.60;100.00;101386.34;5055510;28;20581;-69
2022/07/21 02:50:37;;;;;;;22.58;11.95;;;;;;;19.54;100.00;101379.69;5059667;28;20125;-72
2022/07/21 02:53:07;;;;;;;22.45;12.45;;;;;;;19.55;100.00;101389.72;5056027;28;20495;-70
2022/07/21 02:55:34;;;;;;;26.65;13.10;;;;;;;19.59;100.00;101392.41;5059407;28;20076;-70
2022/07/21 02:58:16;;;;;;;19.40;8.70;;;;;;;19.58;100.00;101394.41;5051306;28;20072;-70
2022/07/21 03:00:55;;;;;;;20.58;11.82;;;;;;;19.62;100.00;101392.31;5062106;28;20063;-70
2022/07/21 03:03:24;;;;;;;18.42;8.98;;;;;;;19.52;100.00;101390.59;5060771;28;20096;-72
2022/07/21 03:05:51;;;;;;;19.92;7.55;;;;;;;19.46;100.00;101381.13;5065001;28;20452;-71
2022/07/21 03:08:19;;;;;;;21.73;10.88;;;;;;;19.45;100.00;101387.97;5054096;28;20082;-71
2022/07/21 03:10:46;;;;;;;18.52;10.77;;;;;;;19.52;100.00;101384.19;5059356;28;20555;-70
2022/07/21 03:13:13;;;;;;;20.52;10.65;;;;;;;19.51;100.00;101382.63;5054481;28;20130;-71
2022/07/21 03:15:40;;;;;;;22.20;11.68;;;;;;;19.46;100.00;101380.34;5056168;28;20040;-70
2022/07/21 03:18:07;;;;;;;19.60;10.95;;;;;;;19.50;100.00;101383.81;5060479;28;20534;-70
2022/07/21 03:20:35;;;;;;;23.40;11.38;;;;;;;19.53;100.00;101378.13;5059862;28;20049;-70
2022/07/21 03:23:02;;;;;;;20.83;10.77;;;;;;;19.42;100.00;101365.63;5060898;28;20110;-68
2022/07/21 03:25:30;;;;;;;17.73;8.35;;;;;;;19.32;100.00;101375.91;5055808;28;20513;-70
2022/07/21 03:27:56;;;;;;;23.65;11.13;;;;;;;19.42;100.00;101374.84;5060528;28;20040;-69
2022/07/21 03:30:23;;;;;;;21.55;10.90;;;;;;;19.38;100.00;101371.34;5051784;28;20044;-72
2022/07/21 03:32:51;;;;;;;20.95;12.77;;;;;;;19.38;100.00;101367.72;5065913;28;20485;-70
2022/07/21 03:35:18;;;;;;;18.98;9.18;;;;;;;19.35;100.00;101372.22;5054587;28;20171;-72
2022/07/21 03:37:51;;;;;;;23.30;11.93;;;;;;;19.36;100.00;101364.56;5060462;28;20079;-71
2022/07/21 03:40:22;;;;;;;21.70;10.77;;;;;;;19.32;100.00;101366.69;5063081;28;20167;-73
2022/07/21 03:42:57;;;;;;;20.77;11.05;;;;;;;19.33;100.00;101365.44;5059162;28;20122;-71
2022/07/21 03:45:25;;;;;;;22.55;11.40;;;;;;;19.39;100.00;101370.09;5056145;28;20063;-69
2022/07/21 03:47:52;;;;;;;23.85;11.65;;;;;;;19.38;100.00;101367.72;5053706;28;20064;-71
2022/07/21 03:50:18;;;;;;;20.92;10.90;;;;;;;19.33;100.00;101360.63;5048369;28;20540;-72
2022/07/21 03:52:46;;;;;;;21.63;10.38;;;;;;;19.31;100.00;101360.28;5052412;28;20124;-70
2022/07/21 03:55:20;;;;;;;20.77;11.98;;;;;;;19.34;100.00;101345.38;5054634;28;20137;-71
2022/07/21 03:57:54;;;;;;;16.73;6.03;;;;;;;19.31;100.00;101351.84;5052183;28;20151;-70
2022/07/21 04:00:25;;;;;;;21.80;10.85;;;;;;;19.32;100.00;101336.63;5058114;28;20776;-70
2022/07/21 04:02:52;;;;;;;21.65;10.77;;;;;;;19.32;100.00;101335.81;5057625;28;20056;-69
2022/07/21 04:05:19;;;;;;;24.75;13.30;;;;;;;19.40;100.00;101338.00;5057790;28;20131;-67
2022/07/21 04:07:48;;;;;;;22.95;13.02;;;;;;;19.44;100.00;101335.88;5057800;28;21681;-71
2022/07/21 04:10:19;;;;;;;18.45;7.97;;;;;;;19.28;100.00;101330.31;5066035;28;20114;-69
2022/07/21 04:12:47;;;;;;;25.05;13.15;;;;;;;19.40;100.00;101335.19;5057718;28;20059;-67
2022/07/21 04:15:13;;;;;;;20.50;11.95;;;;;;;19.42;100.00;101329.94;5053471;28;20140;-71
2022/07/21 04:17:40;;;;;;;23.67;13.05;;;;;;;19.44;100.00;101329.50;5051304;28;20053;-70
2022/07/21 04:20:10;;;;;;;22.25;12.50;;;;;;;19.39;100.00;101313.97;5049606;28;20485;-70
2022/07/21 04:22:38;;;;;;;23.13;12.20;;;;;;;19.45;100.00;101312.22;5050981;28;20053;-69
2022/07/21 04:25:05;;;;;;;22.88;12.60;;;;;;;19.46;100.00;101307.38;5063906;28;20136;-70
2022/07/21 04:27:33;;;;;;;27.58;14.77;;;;;;;19.50;100.00;101302.44;5047516;28;20059;-69
2022/07/21 04:30:00;;;;;;;23.70;12.38;;;;;;;19.51;100.00;101287.97;5057174;28;20076;-70
2022/07/21 04:32:27;;;;;;;23.52;13.15;;;;;;;19.51;100.00;101287.97;5054914;28;20258;-72
2022/07/21 04:34:53;;;;;;;25.77;12.88;;;;;;;19.50;100.00;101294.00;5045749;28;20167;-72
2022/07/21 04:37:20;;;;;;;26.65;13.57;;;;;;;19.50;100.00;101306.03;5057318;28;20114;-72
2022/07/21 04:39:47;;;;;;;23.95;14.95;;;;;;;19.58;100.00;101313.00;5052097;28;20409;-71
2022/07/21 04:42:18;;;;;;;27.35;15.82;;;;;;;19.64;100.00;101324.50;5062408;28;20045;-72
2022/07/21 04:44:45;;;;;;;28.23;15.50;;;;;;;19.59;100.00;101334.25;5056791;28;20045;-72
2022/07/21 04:47:12;;;;;;;31.92;17.25;;;;;;;19.67;100.00;101329.22;5065887;28;20063;-71
2022/07/21 04:49:38;;;;;;;26.92;15.43;;;;;;;19.67;100.00;101330.00;5056543;28;20501;-70
2022/07/21 04:52:05;;;;;;;27.48;14.13;;;;;;;19.69;100.00;101332.38;5062676;28;20622;-71
2022/07/21 04:54:32;;;;;;;25.98;15.25;;;;;;;19.75;100.00;101325.75;5063912;28;20140;-72
2022/07/21 04:56:59;;;;;;;27.70;16.45;;;;;;;19.80;100.00;101338.47;5061333;28;20497;-70
2022/07/21 04:59:25;;;;;;;26.00;15.60;;;;;;;19.85;100.00;101338.69;5049888;28;20049;-72
2022/07/21 05:01:52;;;;;;;26.80;15.40;;;;;;;19.92;100.00;101346.91;5058260;28;20126;-71
2022/07/21 05:04:19;;;;;;;27.73;12.25;;;;;;;19.89;100.00;101341.41;5052829;28;20051;-69
2022/07/21 05:06:45;;;;;;;29.23;16.33;;;;;;;19.92;100.00;101352.53;5057363;28;20040;-69
2022/07/21 05:09:12;;;;;;;15.27;7.07;;;;;;;19.84;100.00;101345.56;5069123;28;20424;-73
2022/07/21 05:11:39;;;;;;;32.03;17.90;;;;;;;19.95;100.00;101346.03;5052935;28;20049;-69
2022/07/21 05:14:06;;;;;;;28.70;15.57;;;;;;;19.98;100.00;101353.56;5066242;28;20056;-70
2022/07/21 05:16:41;;;;;;;26.38;15.25;;;;;;;20.01;100.00;101349.84;5054403;28;20072;-70
2022/07/21 05:19:08;;;;;;;25.70;12.73;;;;;;;20.00;100.00;101353.91;5057640;28;20053;-71
2022/07/21 05:21:34;;;;;;;22.67;11.05;;;;;;;19.98;100.00;101349.97;5050187;28;20521;-73
2022/07/21 05:24:01;;;;;;;31.25;18.13;;;;;;;20.12;100.00;101349.59;5064123;28;20160;-71
2022/07/21 05:26:27;;;;;;;28.13;16.95;;;;;;;20.15;100.00;101355.09;5060283;28;20671;-71
2022/07/21 05:28:54;;;;;;;27.80;16.95;;;;;;;20.19;100.00;101349.38;5059105;28;20139;-69
2022/07/21 05:31:21;;;;;;;23.65;13.07;;;;;;;20.12;100.00;101355.19;5062436;28;20045;-71
2022/07/21 05:33:48;;;;;;;22.60;11.02;;;;;;;20.13;100.00;101354.75;5067507;28;20056;-71
2022/07/21 05:36:14;;;;;;;28.52;14.88;;;;;;;20.24;100.00;101360.84;5056928;28;20064;-71
2022/07/21 05:38:41;;;;;;;24.98;13.35;;;;;;;20.16;100.00;101353.88;5057464;28;20143;-71
2022/07/21 05:41:07;;;;;;;18.13;8.00;;;;;;;20.13;100.00;101357.56;5052216;28;20084;-73
2022/07/21 05:43:34;;;;;;;16.73;6.88;;;;;;;20.02;100.00;101359.84;5055803;28;20424;-70
2022/07/21 05:46:00;;;;;;;20.50;9.93;;;;;;;20.13;100.00;101351.94;5070244;28;20130;-68
2022/07/21 05:48:27;;;;;;;19.48;10.60;;;;;;;20.14;100.00;101363.94;5069194;28;20512;-72
2022/07/21 05:50:54;;;;;;;27.73;16.35;;;;;;;20.22;100.00;101349.25;5074443;28;20753;-71
2022/07/21 05:53:20;;;;;;;18.42;8.02;;;;;;;20.22;100.00;101357.66;5060088;28;20580;-70
2022/07/21 05:55:47;;;;;;;10.73;5.15;;;;;;;20.07;100.00;101352.91;5068969;28;20151;-70
2022/07/21 05:58:14;;;;;;;12.57;5.53;;;;;;;20.11;100.00;101354.41;5066388;28;20044;-71
2022/07/21 06:00:41;;;;;;;21.77;11.93;;;;;;;20.21;100.00;101350.47;5050956;28;20867;-70
2022/07/21 06:03:08;;;;;;;27.25;16.33;;;;;;;20.23;100.00;101347.22;5059134;28;20048;-71
2022/07/21 06:05:38;;;;;;;31.02;17.45;;;;;;;20.28;100.00;101346.66;5069715;28;20048;-70
2022/07/21 06:08:05;;;;;;;28.10;17.65;;;;;;;20.38;100.00;101342.72;5065700;28;20045;-70
2022/07/21 06:10:32;;;;;;;13.48;6.95;;;;;;;20.39;100.00;101336.66;5063503;28;20118;-72
2022/07/21 06:12:59;;;;;;;23.48;13.20;;;;;;;20.38;100.00;101339.16;5054852;28;20071;-70
2022/07/21 06:15:26;;;;;;;23.52;14.02;;;;;;;20.38;100.00;101339.91;5066718;28;20094;-70
2022/07/21 06:17:53;;;;;;;20.08;11.00;;;;;;;20.34;100.00;101336.44;5059130;28;20052;-71
2022/07/21 06:20:21;;;;;;;13.75;7.45;;;;;;;20.41;100.00;101346.69;5065727;28;20052;-66
2022/07/21 06:22:47;;;;;;;21.60;9.98;;;;;;;20.39;100.00;101353.53;5053638;28;20098;-68
2022/07/21 06:25:14;;;;;;;13.88;6.38;;;;;;;20.38;100.00;101356.78;5064626;28;20115;-67
2022/07/21 06:27:41;;;;;;;23.13;12.52;;;;;;;20.38;100.00;101364.44;5061165;28;20052;-68
2022/07/21 06:30:08;;;;;;;16.15;9.65;;;;;;;20.35;100.00;101354.88;5060575;28;20139;-71
2022/07/21 06:32:35;;;;;;;23.63;13.60;;;;;;;20.41;100.00;101361.50;5050813;28;20076;-72
2022/07/21 06:35:02;;;;;;;23.17;13.77;;;;;;;20.39;100.00;101361.97;5055497;28;20055;-72
2022/07/21 06:37:29;;;;;;;12.23;6.45;;;;;;;20.42;100.00;101370.75;5058200;28;20070;-72
2022/07/21 06:39:55;;;;;;;24.30;11.38;;;;;;;20.46;100.00;101368.59;5056607;28;20140;-72
2022/07/21 06:42:22;;;;;;;11.25;6.07;;;;;;;20.40;100.00;101374.00;5056587;28;20509;-72
2022/07/21 06:44:49;;;;;;;19.80;10.13;;;;;;;20.47;100.00;101370.16;5057837;28;20217;-75
2022/07/21 06:47:19;;;;;;;17.85;8.23;;;;;;;20.50;100.00;101372.09;5059143;28;20052;-73
2022/07/21 06:49:46;;;;;;;12.30;5.20;;;;;;;20.48;100.00;101377.38;5059308;28;20072;-70
2022/07/21 06:52:12;;;;;;;21.27;10.10;;;;;;;20.51;100.00;101373.69;5055990;28;20133;-73
2022/07/21 06:54:39;;;;;;;24.33;14.05;;;;;;;20.67;100.00;101370.72;5061444;28;20044;-68
2022/07/21 06:57:06;;;;;;;16.60;8.02;;;;;;;20.60;100.00;101368.94;5062374;28;20044;-69
2022/07/21 06:59:33;;;;;;;22.73;8.20;;;;;;;20.70;100.00;101369.84;5055986;28;20053;-70
2022/07/21 07:01:59;;;;;;;18.25;8.15;;;;;;;20.66;100.00;101372.78;5058817;28;20119;-69
2022/07/21 07:04:26;;;;;;;24.67;14.05;;;;;;;20.84;100.00;101364.53;5062679;28;20064;-70
2022/07/21 07:06:55;;;;;;;22.35;11.75;;;;;;;20.91;100.00;101372.75;5061882;28;20388;-70
2022/07/21 07:09:23;;;;;;;19.90;10.95;;;;;;;20.88;100.00;101365.19;5062080;28;20051;-68
2022/07/21 07:11:52;;;;;;;20.88;9.63;;;;;;;20.88;100.00;101370.81;5060450;28;20056;-69
2022/07/21 07:14:38;;;;;;;20.05;10.85;;;;;;;20.95;100.00;101375.47;5049633;28;20520;-72
2022/07/21 07:17:05;;;;;;;21.67;11.15;;;;;;;20.89;100.00;101378.00;5059530;28;20057;-73
2022/07/21 07:19:32;;;;;;;9.52;5.70;;;;;;;20.92;100.00;101381.97;5052456;28;20529;-71
2022/07/21 07:21:59;;;;;;;10.95;4.88;;;;;;;20.98;100.00;101388.63;5062883;28;20072;-72
2022/07/21 07:24:25;;;;;;;20.30;9.75;;;;;;;21.14;100.00;101389.28;5057913;28;20049;-72
2022/07/21 07:26:52;;;;;;;8.05;4.18;;;;;;;21.04;100.00;101381.97;5052605;28;20049;-72
2022/07/21 07:29:19;;;;;;;22.52;10.32;;;;;;;21.19;100.00;101382.28;5051787;28;20052;-71
2022/07/21 07:31:45;;;;;;;19.60;9.70;;;;;;;21.20;100.00;101379.03;5054950;28;20451;-71
2022/07/21 07:34:12;;;;;;;13.30;6.22;;;;;;;21.16;100.00;101378.34;5053878;28;20055;-72
2022/07/21 07:36:39;;;;;;;20.77;9.50;;;;;;;21.31;100.00;101378.63;5062214;28;20131;-72
2022/07/21 07:39:11;;;;;;;21.27;10.52;;;;;;;21.50;100.00;101378.34;5060327;28;20559;-74
2022/07/21 07:41:38;;;;;;;20.88;10.25;;;;;;;21.47;100.00;101372.84;5054894;28;20055;-73
2022/07/21 07:44:05;;;;;;;23.08;11.15;;;;;;;21.65;100.00;101378.63;5060710;28;20106;-72
2022/07/21 07:46:32;;;;;;;12.48;6.10;;;;;;;21.60;100.00;101379.22;5056901;28;20139;-73
2022/07/21 07:48:59;;;;;;;21.73;11.23;;;;;;;21.61;100.00;101377.97;5065281;28;20041;-73
2022/07/21 07:51:37;;;;;;;13.93;5.10;;;;;;;21.55;100.00;101371.34;5061745;28;20047;-73
2022/07/21 07:54:03;;;;;;;17.55;7.18;;;;;;;21.50;100.00;101380.38;5064698;28;20052;-72
2022/07/21 07:56:31;;;;;;;10.45;5.60;;;;;;;21.52;100.00;101380.69;5058336;28;20131;-69
2022/07/21 07:58:58;;;;;;;15.55;7.47;;;;;;;21.49;100.00;101390.84;5056352;28;20051;-71
2022/07/21 08:01:25;;;;;;;20.02;11.85;;;;;;;21.47;100.00;101396.16;5061115;28;20064;-72
2022/07/21 08:03:53;;;;;;;16.60;9.07;;;;;;;21.51;100.00;101396.03;5066102;28;20113;-72
2022/07/21 08:06:20;;;;;;;15.10;5.70;;;;;;;21.31;100.00;101395.53;5064112;28;20085;-71
2022/07/21 08:08:47;;;;;;;15.65;6.32;;;;;;;21.39;100.00;101383.56;5062750;28;20064;-75
2022/07/21 08:11:14;;;;;;;19.58;9.15;;;;;;;21.59;100.00;101392.50;5055816;28;20087;-73
2022/07/21 08:13:41;;;;;;;9.05;3.72;;;;;;;21.68;100.00;101391.78;5053273;28;20553;-74
2022/07/21 08:16:07;;;;;;;14.25;5.80;;;;;;;21.69;100.00;101391.34;5051766;28;20056;-73
2022/07/21 08:18:34;;;;;;;17.25;9.60;;;;;;;22.01;100.00;101382.50;5053735;28;21268;-73
2022/07/21 08:21:01;;;;;;;16.92;8.95;;;;;;;22.28;100.00;101385.50;5053974;28;20881;-73
2022/07/21 08:23:27;;;;;;;17.25;8.63;;;;;;;22.38;100.00;101373.03;5055974;28;20656;-73
2022/07/21 08:25:54;;;;;;;17.40;7.88;;;;;;;22.54;100.00;101383.31;5055737;28;20082;-72
2022/07/21 08:28:21;;;;;;;15.15;5.60;;;;;;;22.51;100.00;101382.19;5060002;28;20045;-74
2022/07/21 08:30:47;;;;;;;15.55;7.82;;;;;;;22.50;100.00;101386.28;5055591;28;20484;-74
2022/07/21 08:33:14;;;;;;;17.58;5.20;;;;;;;22.32;100.00;101380.53;5055833;28;20136;-73
2022/07/21 08:35:40;;;;;;;11.45;3.97;;;;;;;22.37;100.00;101387.59;5067122;28;20059;-74
2022/07/21 08:38:08;;;;;;;14.32;4.78;;;;;;;22.35;100.00;101390.09;5064535;28;20487;-73
2022/07/21 08:40:38;;;;;;;8.00;4.53;;;;;;;22.55;100.00;101388.47;5065490;28;20589;-72
2022/07/21 08:43:08;;;;;;;8.18;3.22;;;;;;;22.43;100.00;101378.06;5059697;28;20040;-71
2022/07/21 08:45:37;;;;;;;15.50;6.22;;;;;;;22.63;100.00;101386.19;5064775;28;20494;-75
2022/07/21 08:48:04;;;;;;;11.48;5.53;;;;;;;22.64;100.00;101380.06;5054286;28;20080;-73
2022/07/21 08:50:36;;;;;;;15.90;6.35;;;;;;;22.80;100.00;101381.84;5057645;28;20402;-73
2022/07/21 08:53:04;;;;;;;3.42;1.85;;;;;;;22.82;100.00;101385.00;5067985;28;20077;-73
2022/07/21 08:55:36;;;;;;;15.60;6.75;;;;;;;22.91;100.00;101382.19;5060957;28;20055;-72
2022/07/21 08:58:03;;;;;;;11.15;4.30;;;;;;;22.81;100.00;101388.28;5056379;28;20148;-73
2022/07/21 09:00:34;;;;;;;13.60;6.88;;;;;;;22.73;100.00;101387.78;5073639;28;20048;-73
2022/07/21 09:03:12;;;;;;;7.43;4.00;;;;;;;22.55;100.00;101387.72;5078957;28;20114;-72
2022/07/21 09:05:41;;;;;;;9.70;3.67;;;;;;;22.37;100.00;101387.59;5061775;28;20051;-72
2022/07/21 09:08:08;;;;;;;16.45;7.18;;;;;;;22.49;100.00;101378.28;5059755;28;20049;-74
2022/07/21 09:10:34;;;;;;;8.80;4.30;;;;;;;22.36;100.00;101381.19;5059574;28;20103;-72
2022/07/21 09:13:05;;;;;;;18.80;6.82;;;;;;;22.51;100.00;101381.44;5062658;28;20087;-72
2022/07/21 09:15:33;;;;;;;13.40;5.93;;;;;;;22.64;100.00;101373.63;5061958;28;20048;-72
2022/07/21 09:18:26;;;;;;;12.95;6.28;;;;;;;22.73;100.00;101380.13;5065174;28;20102;-72
2022/07/21 09:20:53;;;;;;;5.45;2.35;;;;;;;22.58;100.00;101392.44;5060030;28;20063;-72
2022/07/21 09:23:22;;;;;;;7.60;3.88;;;;;;;22.75;100.00;101385.28;5059562;28;20141;-71
2022/07/21 09:25:52;;;;;;;5.63;2.45;;;;;;;22.69;100.00;101387.16;5062369;28;20132;-72
2022/07/21 09:28:20;;;;;;;8.10;4.05;;;;;;;22.74;100.00;101378.84;5058262;28;20049;-72
2022/07/21 09:31:06;;;;;;;6.88;3.30;;;;;;;22.78;100.00;101385.13;5066066;28;20147;-72
2022/07/21 09:33:45;;;;;;;16.10;4.80;;;;;;;22.88;100.00;101385.94;5064514;28;20049;-73
2022/07/21 09:36:17;;;;;;;7.68;3.88;;;;;;;22.99;100.00;101383.47;5058092;28;20498;-72
2022/07/21 09:38:52;;;;;;;11.13;5.60;;;;;;;23.10;100.00;101383.81;5057399;28;20133;-72
2022/07/21 09:41:22;;;;;;;13.70;6.38;;;;;;;23.08;100.00;101377.84;5052532;28;20049;-74
2022/07/21 09:43:51;;;;;;;11.73;6.07;;;;;;;23.29;100.00;101379.00;5054950;28;20139;-74
2022/07/21 09:46:26;;;;;;;8.93;3.35;;;;;;;23.18;100.00;101389.97;5047154;28;20045;-74
2022/07/21 09:48:56;;;;;;;8.38;3.90;;;;;;;23.06;100.00;101388.84;5047255;28;20055;-72
2022/07/21 09:51:43;;;;;;;12.60;3.80;;;;;;;23.14;99.79;101395.75;5045578;28;21934;-72
2022/07/21 09:54:12;;;;;;;13.60;6.80;;;;;;;23.40;99.51;101384.97;5046595;28;20209;-73
2022/07/21 09:56:47;;;;;;;6.88;3.30;;;;;;;23.21;96.63;101389.78;5047852;28;20048;-73
2022/07/21 09:59:13;;;;;;;12.88;6.05;;;;;;;23.33;97.84;101394.56;5049033;28;20052;-72
2022/07/21 10:01:40;;;;;;;7.00;3.17;;;;;;;23.22;96.52;101402.66;5046462;28;20398;-73
2022/07/21 10:04:07;;;;;;;10.93;5.32;;;;;;;23.36;98.85;101385.16;5045244;28;20055;-73
2022/07/21 10:06:38;;;;;;;13.98;4.32;;;;;;;23.38;98.79;101399.56;5052370;28;20861;-72
2022/07/21 10:09:08;;;;;;;11.75;4.72;;;;;;;23.32;98.61;101390.13;5059439;28;20082;-73
2022/07/21 10:11:40;;;;;;;16.65;7.47;;;;;;;23.62;100.00;101386.41;5055798;28;20052;-72
2022/07/21 10:14:10;;;;;;;11.75;3.67;;;;;;;23.40;98.24;101397.06;5055964;28;20053;-71
2022/07/21 10:16:36;;;;;;;11.05;5.20;;;;;;;23.43;95.25;101401.78;5056811;28;20089;-73
2022/07/21 10:19:31;;;;;;;5.88;2.65;;;;;;;23.48;96.76;101398.31;5057325;28;20052;-71
2022/07/21 10:22:00;;;;;;;10.20;4.28;;;;;;;23.60;95.96;101393.78;5057679;28;20056;-68
2022/07/21 10:24:31;;;;;;;11.82;5.38;;;;;;;23.64;95.56;101405.72;5059501;28;20141;-69
2022/07/21 10:27:09;;;;;;;9.43;4.28;;;;;;;23.70;95.33;101393.31;5053766;28;20076;-70
2022/07/21 10:30:00;;;;;;;13.88;6.63;;;;;;;23.80;94.42;101382.78;5051638;28;20107;-70
2022/07/21 10:32:30;;;;;;;9.85;4.18;;;;;;;23.75;95.18;101397.53;5051907;28;20060;-70
2022/07/21 10:34:58;;;;;;;12.13;5.88;;;;;;;23.86;94.76;101389.38;5049287;28;20059;-69
2022/07/21 10:37:40;;;;;;;9.85;3.90;;;;;;;23.94;94.84;101402.75;5048109;28;20056;-69
2022/07/21 10:40:13;;;;;;;10.18;4.72;;;;;;;23.99;94.04;101396.44;5059305;28;20156;-70
2022/07/21 10:42:40;;;;;;;18.42;7.53;;;;;;;24.01;93.01;101399.59;5057967;28;20113;-69
2022/07/21 10:45:30;;;;;;;5.32;2.13;;;;;;;23.88;91.70;101398.94;5049460;28;20762;-70
2022/07/21 10:47:58;;;;;;;10.02;5.32;;;;;;;23.83;93.34;101399.56;5052980;28;20057;-70
2022/07/21 10:50:50;;;;;;;13.30;5.97;;;;;;;23.75;93.97;101409.63;5042717;28;20059;-71
2022/07/21 10:53:18;;;;;;;12.75;4.57;;;;;;;23.69;95.24;101405.09;5045696;28;20084;-71
2022/07/21 10:55:50;;;;;;;9.57;3.60;;;;;;;23.41;95.93;101395.81;5057088;28;20078;-73
2022/07/21 10:58:29;;;;;;;11.52;4.20;;;;;;;23.23;98.29;101409.13;5049180;28;20049;-72
2022/07/21 11:00:59;;;;;;;3.88;2.33;;;;;;;23.09;100.00;101412.50;5047941;28;20056;-68
2022/07/21 11:03:38;;;;;;;9.25;3.38;;;;;;;23.08;100.00;101406.06;5044729;28;20051;-69
2022/07/21 11:06:05;;;;;;;13.27;5.18;;;;;;;22.92;100.00;101417.66;5051499;28;20060;-70
2022/07/21 11:08:34;;;;;;;13.60;5.07;;;;;;;22.67;100.00;101424.28;5059193;28;20079;-74
2022/07/21 11:11:15;;;;;;;15.07;6.72;;;;;;;22.27;100.00;101423.41;5048080;28;20084;-74
2022/07/21 11:14:01;;;;;;;16.13;8.23;;;;;;;21.95;100.00;101428.66;5046361;28;20057;-73
2022/07/21 11:16:43;;;;;;;19.45;11.05;;;;;;;21.76;100.00;101430.56;5047477;28;20059;-70